Time;durP1;ratioP1;P1;durP2;ratioP2;P2;SDS_P1;SDS_P2;PMS_P1;PMS_P2;Temp;Humidity;BMP_temperature;BMP_pressure;BME280_temperature;BME280_humidity;BME280_pressure;Samples;Min_cycle;Max_cycle;Signal;HPM_P1;HPM_P2
2023/10/23 05:05:30;;;;;;;;;10.50;6.75;;;;;;;;6280664;22;45677;-69
2023/10/23 05:07:56;;;;;;;;;7.00;6.00;;;;;;;;6307938;22;45201;-69
2023/10/23 05:10:21;;;;;;;;;5.00;4.50;;;;;;;;6307774;22;46049;-69
2023/10/23 05:12:49;;;;;;;;;6.00;6.00;;;;;;;;6309982;22;45160;-70
2023/10/23 05:15:14;;;;;;;;;8.00;6.00;;;;;;;;6309640;22;45213;-69
2023/10/23 05:17:40;;;;;;;;;8.00;5.50;;;;;;;;6309849;22;45400;-69
2023/10/23 05:20:05;;;;;;;;;7.00;5.00;;;;;;;;6309155;22;45259;-69
2023/10/23 05:22:32;;;;;;;;;6.00;4.00;;;;;;;;6309975;22;45214;-69
2023/10/23 05:24:57;;;;;;;;;4.75;4.75;;;;;;;;6282345;22;45308;-69
2023/10/23 05:27:22;;;;;;;;;9.00;5.00;;;;;;;;6309363;22;45226;-69
2023/10/23 05:29:47;;;;;;;;;8.00;5.50;;;;;;;;6308319;22;45218;-68
2023/10/23 05:32:12;;;;;;;;;6.25;4.25;;;;;;;;6306096;22;45486;-68
2023/10/23 05:34:38;;;;;;;;;7.75;5.25;;;;;;;;6308690;22;45280;-68
2023/10/23 05:37:03;;;;;;;;;7.00;6.00;;;;;;;;6309812;22;45502;-68
2023/10/23 05:39:28;;;;;;;;;7.50;4.00;;;;;;;;6309154;22;45725;-69
2023/10/23 05:41:54;;;;;;;;;5.25;4.00;;;;;;;;6309617;22;45288;-69
2023/10/23 05:44:19;;;;;;;;;6.00;4.75;;;;;;;;6309573;22;45345;-68
2023/10/23 05:46:44;;;;;;;;;5.50;4.00;;;;;;;;6310034;22;45247;-69
2023/10/23 05:49:09;;;;;;;;;5.50;3.00;;;;;;;;6308951;22;45392;-70
2023/10/23 05:51:34;;;;;;;;;5.00;4.00;;;;;;;;6310166;22;45276;-69
2023/10/23 05:54:00;;;;;;;;;8.25;5.00;;;;;;;;6308691;22;45179;-68
2023/10/23 05:56:25;;;;;;;;;4.00;4.00;;;;;;;;6280870;22;45487;-68
2023/10/23 05:58:50;;;;;;;;;6.00;4.00;;;;;;;;6309297;22;45265;-68
2023/10/23 06:01:16;;;;;;;;;5.50;5.25;;;;;;;;6309162;22;45318;-68
2023/10/23 06:03:41;;;;;;;;;4.75;3.75;;;;;;;;6309395;22;45215;-69
2023/10/23 06:06:07;;;;;;;;;8.00;5.75;;;;;;;;6333190;22;45413;-69
2023/10/23 06:08:32;;;;;;;;;1.00;1.00;;;;;;;;6340333;22;46840;-69
2023/10/23 06:10:57;;;;;;;;;9.00;4.25;;;;;;;;6311663;22;45162;-69
2023/10/23 06:13:23;;;;;;;;;4.75;4.25;;;;;;;;6312707;22;45372;-70
2023/10/23 06:15:48;;;;;;;;;4.25;4.25;;;;;;;;6341122;22;45458;-69
2023/10/23 06:18:14;;;;;;;;;10.25;5.75;;;;;;;;6312339;22;46520;-69
2023/10/23 06:20:39;;;;;;;;;5.00;4.00;;;;;;;;6340369;22;45218;-71
2023/10/23 06:23:04;;;;;;;;;4.50;4.25;;;;;;;;6340455;22;45279;-70
2023/10/23 06:25:30;;;;;;;;;5.50;4.50;;;;;;;;6340577;22;45075;-70
2023/10/23 06:27:55;;;;;;;;;6.75;4.75;;;;;;;;6340594;22;46124;-69
2023/10/23 06:30:21;;;;;;;;;5.00;5.00;;;;;;;;6340201;22;45281;-70
2023/10/23 06:32:46;;;;;;;;;7.25;4.75;;;;;;;;6340923;22;45355;-69
2023/10/23 06:35:11;;;;;;;;;5.50;4.25;;;;;;;;6339873;22;45285;-69
2023/10/23 06:37:37;;;;;;;;;5.00;5.00;;;;;;;;6340790;22;46016;-70
2023/10/23 06:40:02;;;;;;;;;10.50;6.00;;;;;;;;6339949;22;45195;-69
2023/10/23 06:42:28;;;;;;;;;5.25;4.25;;;;;;;;6340890;22;45460;-70
2023/10/23 06:44:53;;;;;;;;;4.50;4.50;;;;;;;;6340746;22;44680;-70
2023/10/23 06:47:18;;;;;;;;;8.25;5.50;;;;;;;;6340611;22;45453;-69
2023/10/23 06:49:44;;;;;;;;;9.50;4.50;;;;;;;;6340287;22;45180;-69
2023/10/23 06:52:09;;;;;;;;;6.25;4.00;;;;;;;;6311561;22;45347;-70
2023/10/23 06:54:34;;;;;;;;;5.25;4.25;;;;;;;;6340680;22;45199;-70
2023/10/23 06:56:59;;;;;;;;;4.75;4.25;;;;;;;;6340866;22;45242;-70
2023/10/23 06:59:25;;;;;;;;;4.00;4.00;;;;;;;;6340211;22;45488;-70
2023/10/23 07:01:50;;;;;;;;;5.00;4.00;;;;;;;;6340823;22;45485;-70
2023/10/23 07:04:15;;;;;;;;;5.00;3.75;;;;;;;;6339935;22;45257;-71
2023/10/23 07:06:40;;;;;;;;;7.00;3.00;;;;;;;;6340499;22;45355;-69
2023/10/23 07:09:05;;;;;;;;;6.25;4.00;;;;;;;;6340411;22;45369;-71
2023/10/23 07:11:31;;;;;;;;;6.50;6.25;;;;;;;;6340697;22;45273;-70
2023/10/23 07:13:56;;;;;;;;;7.00;4.25;;;;;;;;6340639;22;45241;-71
2023/10/23 07:16:21;;;;;;;;;5.00;4.50;;;;;;;;6340798;22;45098;-70
2023/10/23 07:18:47;;;;;;;;;7.75;4.50;;;;;;;;6340172;22;45076;-70
2023/10/23 07:21:12;;;;;;;;;7.00;4.50;;;;;;;;6340785;22;45638;-70
2023/10/23 07:23:37;;;;;;;;;6.50;5.25;;;;;;;;6340110;22;45221;-70
2023/10/23 07:26:03;;;;;;;;;7.75;7.75;;;;;;;;6340716;22;45422;-70
2023/10/23 07:28:29;;;;;;;;;8.00;8.00;;;;;;;;6340581;22;45213;-71
2023/10/23 07:30:54;;;;;;;;;8.00;5.00;;;;;;;;6340950;22;45167;-70
2023/10/23 07:33:19;;;;;;;;;6.75;5.00;;;;;;;;6340557;22;45218;-70
2023/10/23 07:35:44;;;;;;;;;8.25;4.00;;;;;;;;6338848;22;45451;-71
2023/10/23 07:38:09;;;;;;;;;4.75;4.50;;;;;;;;6340766;22;45278;-70
2023/10/23 07:40:41;;;;;;;;;3.00;3.00;;;;;;;;6340307;22;45167;-70
2023/10/23 07:43:06;;;;;;;;;8.00;5.75;;;;;;;;6340681;22;45487;-70
2023/10/23 07:45:31;;;;;;;;;7.25;6.00;;;;;;;;6311879;22;47173;-71
2023/10/23 07:47:57;;;;;;;;;7.00;6.00;;;;;;;;6340746;22;45238;-69
2023/10/23 07:50:24;;;;;;;;;7.50;4.75;;;;;;;;6339684;22;45174;-70
2023/10/23 07:52:50;;;;;;;;;5.00;4.00;;;;;;;;6340318;22;45472;-70
2023/10/23 07:55:15;;;;;;;;;4.75;4.75;;;;;;;;6339058;22;45444;-70
2023/10/23 07:57:40;;;;;;;;;4.00;4.00;;;;;;;;6340843;22;45300;-70
2023/10/23 08:00:06;;;;;;;;;5.00;4.00;;;;;;;;6339667;22;45135;-70
2023/10/23 08:02:31;;;;;;;;;6.00;4.00;;;;;;;;6340081;22;45345;-70
2023/10/23 08:04:56;;;;;;;;;4.75;3.75;;;;;;;;6339640;22;45388;-70
2023/10/23 08:07:22;;;;;;;;;8.00;5.00;;;;;;;;6340804;22;45310;-70
2023/10/23 08:09:47;;;;;;;;;8.00;6.00;;;;;;;;6311519;22;45322;-70
2023/10/23 08:12:12;;;;;;;;;5.00;4.25;;;;;;;;6340675;22;45350;-70
2023/10/23 08:14:37;;;;;;;;;4.25;2.50;;;;;;;;6340016;22;45347;-70
2023/10/23 08:17:03;;;;;;;;;6.50;5.00;;;;;;;;6311352;22;45275;-70
2023/10/23 08:19:28;;;;;;;;;6.25;5.00;;;;;;;;6339889;22;45288;-70
2023/10/23 08:21:54;;;;;;;;;7.00;5.00;;;;;;;;6339195;22;45275;-70
2023/10/23 08:24:19;;;;;;;;;5.00;3.75;;;;;;;;6310848;22;47974;-70
2023/10/23 08:26:44;;;;;;;;;4.50;3.25;;;;;;;;6340306;22;45226;-70
2023/10/23 08:29:09;;;;;;;;;4.25;3.25;;;;;;;;6311305;22;45416;-70
2023/10/23 08:31:34;;;;;;;;;4.50;4.00;;;;;;;;6340435;22;45373;-70
2023/10/23 08:33:59;;;;;;;;;3.75;3.75;;;;;;;;6339807;22;46537;-70
2023/10/23 08:36:25;;;;;;;;;5.00;5.00;;;;;;;;6340633;22;45236;-70
2023/10/23 08:38:50;;;;;;;;;7.75;4.00;;;;;;;;6340760;22;45168;-70
2023/10/23 08:41:15;;;;;;;;;7.25;4.00;;;;;;;;6340135;22;45259;-69
2023/10/23 08:43:40;;;;;;;;;6.00;4.25;;;;;;;;6339945;22;45223;-69
2023/10/23 08:46:08;;;;;;;;;7.50;6.00;;;;;;;;6338055;22;45254;-69
2023/10/23 08:48:33;;;;;;;;;7.00;5.00;;;;;;;;6339927;22;45146;-69
2023/10/23 08:50:58;;;;;;;;;7.75;7.75;;;;;;;;6337948;22;45464;-69
2023/10/23 08:53:31;;;;;;;;;6.75;5.25;;;;;;;;6339900;22;45831;-70
2023/10/23 08:55:56;;;;;;;;;5.00;5.00;;;;;;;;6340276;22;45351;-69
2023/10/23 08:58:22;;;;;;;;;8.25;4.00;;;;;;;;6340561;22;45254;-69
2023/10/23 09:00:47;;;;;;;;;7.25;7.25;;;;;;;;6339086;22;45670;-69
2023/10/23 09:03:12;;;;;;;;;7.25;5.00;;;;;;;;6340024;22;45073;-69
2023/10/23 09:05:38;;;;;;;;;10.25;6.25;;;;;;;;6338995;22;45211;-69
2023/10/23 09:08:03;;;;;;;;;5.50;4.50;;;;;;;;6340449;22;45215;-69
2023/10/23 09:10:29;;;;;;;;;6.00;6.00;;;;;;;;6339498;22;45367;-69
2023/10/23 09:12:55;;;;;;;;;3.75;3.75;;;;;;;;6340019;22;45155;-69
2023/10/23 09:15:21;;;;;;;;;3.50;3.25;;;;;;;;6339710;22;45251;-69
2023/10/23 09:17:46;;;;;;;;;6.75;5.00;;;;;;;;6338097;22;45190;-69
2023/10/23 09:20:26;;;;;;;;;4.00;4.00;;;;;;;;6310060;22;46315;-69
2023/10/23 09:22:52;;;;;;;;;7.25;5.75;;;;;;;;6310185;22;45523;-70
2023/10/23 09:25:19;;;;;;;;;8.25;6.50;;;;;;;;6339513;22;45188;-69
2023/10/23 09:27:45;;;;;;;;;9.00;6.50;;;;;;;;6338150;22;45239;-69
2023/10/23 09:30:10;;;;;;;;;8.50;7.50;;;;;;;;6310936;22;45402;-69
2023/10/23 09:32:36;;;;;;;;;6.00;5.00;;;;;;;;6310774;22;46546;-69
2023/10/23 09:35:02;;;;;;;;;8.75;7.75;;;;;;;;6338834;22;45329;-69
2023/10/23 09:37:27;;;;;;;;;6.67;4.33;;;;;;;;6311610;22;45505;-69
2023/10/23 09:39:52;;;;;;;;;6.33;5.00;;;;;;;;6338048;22;45246;-69
2023/10/23 09:42:18;;;;;;;;;7.67;6.67;;;;;;;;6339489;22;45337;-69
2023/10/23 09:44:45;;;;;;;;;5.50;4.00;;;;;;;;6339460;22;45203;-69
2023/10/23 09:47:11;;;;;;;;;7.00;6.50;;;;;;;;6310969;22;45239;-69
2023/10/23 09:49:38;;;;;;;;;6.67;6.00;;;;;;;;6338624;22;45293;-69
2023/10/23 09:52:06;;;;;;;;;5.50;4.25;;;;;;;;6339588;22;46230;-69
2023/10/23 09:54:33;;;;;;;;;6.75;5.25;;;;;;;;6339229;22;45313;-69
2023/10/23 09:57:03;;;;;;;;;6.00;6.00;;;;;;;;6340136;22;45241;-69
2023/10/23 09:59:37;;;;;;;;;13.25;10.75;;;;;;;;6340262;22;45333;-69
2023/10/23 10:02:05;;;;;;;;;5.33;5.33;;;;;;;;6340366;22;45211;-69
2023/10/23 10:04:31;;;;;;;;;8.33;6.67;;;;;;;;6339970;22;45158;-69
2023/10/23 10:07:00;;;;;;;;;10.25;7.50;;;;;;;;6341407;22;45407;-69
2023/10/23 10:09:25;;;;;;;;;8.00;7.00;;;;;;;;6337895;22;45456;-69
2023/10/23 10:11:52;;;;;;;;;8.00;8.00;;;;;;;;6339657;22;45299;-68
2023/10/23 10:14:17;;;;;;;;;4.33;3.33;;;;;;;;6340478;22;45230;-69
2023/10/23 10:16:43;;;;;;;;;9.67;5.67;;;;;;;;6341040;22;45091;-69
2023/10/23 10:19:09;;;;;;;;;5.00;5.00;;;;;;;;6340497;22;45508;-69
2023/10/23 10:21:54;;;;;;;;;6.00;6.00;;;;;;;;6311881;22;47218;-69
2023/10/23 10:24:20;;;;;;;;;7.00;5.00;;;;;;;;6310890;22;45096;-69
2023/10/23 10:26:46;;;;;;;;;5.67;5.00;;;;;;;;6340991;22;45222;-69
2023/10/23 10:29:12;;;;;;;;;8.00;7.00;;;;;;;;6339875;22;45123;-69
2023/10/23 10:31:56;;;;;;;;;6.67;6.00;;;;;;;;6341025;22;46450;-69
2023/10/23 10:34:24;;;;;;;;;7.00;6.33;;;;;;;;6340224;22;45256;-69
2023/10/23 10:36:50;;;;;;;;;5.33;4.00;;;;;;;;6312476;22;45326;-69
2023/10/23 10:39:17;;;;;;;;;8.00;6.33;;;;;;;;6340312;22;45264;-70
2023/10/23 10:41:42;;;;;;;;;7.00;5.33;;;;;;;;6340000;22;46090;-71
2023/10/23 10:44:10;;;;;;;;;5.00;4.00;;;;;;;;6311877;22;46024;-70
2023/10/23 10:46:39;;;;;;;;;4.00;4.00;;;;;;;;6341195;22;45238;-70
2023/10/23 10:49:04;;;;;;;;;4.33;3.00;;;;;;;;6311407;22;45414;-70
2023/10/23 10:51:30;;;;;;;;;4.00;3.00;;;;;;;;6340613;22;45299;-70
2023/10/23 10:54:02;;;;;;;;;4.67;4.00;;;;;;;;6340401;22;45231;-70
2023/10/23 10:56:27;;;;;;;;;10.00;8.67;;;;;;;;6341144;22;45235;-69
2023/10/23 10:58:52;;;;;;;;;6.00;4.67;;;;;;;;6338876;22;45204;-70
2023/10/23 11:01:22;;;;;;;;;8.33;5.00;;;;;;;;6311280;22;46614;-69
2023/10/23 11:03:47;;;;;;;;;4.00;4.00;;;;;;;;6339938;22;45144;-69
2023/10/23 11:06:12;;;;;;;;;11.00;11.00;;;;;;;;6340016;22;45396;-70
2023/10/23 11:08:40;;;;;;;;;4.00;4.00;;;;;;;;6339946;22;45202;-69
2023/10/23 11:11:05;;;;;;;;;4.00;4.00;;;;;;;;6340466;22;45150;-69
2023/10/23 11:13:30;;;;;;;;;18.50;14.50;;;;;;;;6340291;22;45166;-69
2023/10/23 11:15:56;;;;;;;;;9.00;9.00;;;;;;;;6340864;22;45101;-69
2023/10/23 11:18:21;;;;;;;;;29.50;22.75;;;;;;;;6312201;22;46038;-71
2023/10/23 11:20:47;;;;;;;;;11.33;10.33;;;;;;;;6339649;22;45186;-69
2023/10/23 11:23:22;;;;;;;;;11.33;9.67;;;;;;;;6311950;22;45221;-68
2023/10/23 11:25:47;;;;;;;;;13.33;11.67;;;;;;;;6341082;22;45013;-68
2023/10/23 11:28:13;;;;;;;;;8.00;7.00;;;;;;;;6340732;22;45282;-69
2023/10/23 11:30:48;;;;;;;;;8.00;8.00;;;;;;;;6339843;22;46120;-69
2023/10/23 11:33:15;;;;;;;;;8.00;8.00;;;;;;;;6340315;22;45266;-69
2023/10/23 11:35:40;;;;;;;;;7.00;5.33;;;;;;;;6339947;22;45267;-70
2023/10/23 11:38:05;;;;;;;;;7.00;5.00;;;;;;;;6340605;22;45243;-70
2023/10/23 11:40:32;;;;;;;;;7.00;7.00;;;;;;;;6340144;22;45493;-70
2023/10/23 11:42:57;;;;;;;;;7.33;7.00;;;;;;;;6340373;22;45230;-70
2023/10/23 11:45:23;;;;;;;;;9.33;9.00;;;;;;;;6340353;22;45211;-70
2023/10/23 11:47:51;;;;;;;;;6.00;6.00;;;;;;;;6340799;22;45188;-70
2023/10/23 11:50:18;;;;;;;;;5.33;4.33;;;;;;;;6310945;22;47074;-70
2023/10/23 11:52:44;;;;;;;;;7.00;5.33;;;;;;;;6340468;22;45329;-69
2023/10/23 11:55:10;;;;;;;;;5.00;5.00;;;;;;;;6340248;22;45276;-70
2023/10/23 11:57:37;;;;;;;;;9.00;8.67;;;;;;;;6340452;22;45263;-72
2023/10/23 12:00:07;;;;;;;;;8.67;7.00;;;;;;;;6340066;22;45266;-71
2023/10/23 12:02:32;;;;;;;;;10.00;8.00;;;;;;;;6338296;22;45366;-71
2023/10/23 12:04:57;;;;;;;;;7.00;7.00;;;;;;;;6339582;22;45250;-71
2023/10/23 12:07:22;;;;;;;;;7.00;7.00;;;;;;;;6341090;22;45188;-71
2023/10/23 12:09:48;;;;;;;;;7.33;6.33;;;;;;;;6340139;22;45900;-71
2023/10/23 12:12:13;;;;;;;;;10.00;7.00;;;;;;;;6338821;22;45294;-71
2023/10/23 12:14:39;;;;;;;;;10.00;8.00;;;;;;;;6340543;22;45187;-71
2023/10/23 12:17:04;;;;;;;;;14.00;9.00;;;;;;;;6340620;22;45236;-71
2023/10/23 12:19:29;;;;;;;;;7.67;7.33;;;;;;;;6339401;22;45342;-71
2023/10/23 12:21:54;;;;;;;;;11.00;8.00;;;;;;;;6339229;22;45225;-71
2023/10/23 12:24:20;;;;;;;;;9.00;8.00;;;;;;;;6340609;22;45262;-71
2023/10/23 12:26:45;;;;;;;;;7.00;7.00;;;;;;;;6340180;22;45246;-71
2023/10/23 12:29:12;;;;;;;;;7.00;7.00;;;;;;;;6311552;22;47891;-71
2023/10/23 12:31:38;;;;;;;;;10.67;7.00;;;;;;;;6340391;22;45274;-71
2023/10/23 12:34:04;;;;;;;;;7.33;5.67;;;;;;;;6310450;22;45199;-71
2023/10/23 12:36:29;;;;;;;;;8.00;6.33;;;;;;;;6338778;22;45504;-71
2023/10/23 12:38:54;;;;;;;;;9.00;8.00;;;;;;;;6340054;22;45155;-71
2023/10/23 12:41:20;;;;;;;;;8.67;7.00;;;;;;;;6339728;22;45204;-71
2023/10/23 12:43:47;;;;;;;;;6.67;6.67;;;;;;;;6340071;22;45282;-71
2023/10/23 12:46:12;;;;;;;;;8.67;7.00;;;;;;;;6340403;22;45288;-72
2023/10/23 12:48:41;;;;;;;;;8.00;7.00;;;;;;;;6309709;22;45273;-71
2023/10/23 12:51:06;;;;;;;;;9.00;9.00;;;;;;;;6339507;22;45208;-71
2023/10/23 12:53:31;;;;;;;;;10.33;9.33;;;;;;;;6340027;22;45250;-70
2023/10/23 12:55:56;;;;;;;;;9.33;8.33;;;;;;;;6339736;22;45209;-71
2023/10/23 12:58:22;;;;;;;;;15.25;15.25;;;;;;;;6340001;22;45628;-70
2023/10/23 13:00:47;;;;;;;;;6.00;6.00;;;;;;;;6339265;22;45440;-71
2023/10/23 13:03:12;;;;;;;;;9.67;7.00;;;;;;;;6311310;22;45437;-71
2023/10/23 13:05:38;;;;;;;;;11.33;9.33;;;;;;;;6338830;22;45388;-71
2023/10/23 13:08:03;;;;;;;;;9.00;7.67;;;;;;;;6339794;22;45867;-71
2023/10/23 13:10:29;;;;;;;;;9.00;9.00;;;;;;;;6339205;22;45361;-71
2023/10/23 13:12:54;;;;;;;;;9.00;9.00;;;;;;;;6339889;22;45231;-70
2023/10/23 13:15:19;;;;;;;;;9.00;9.00;;;;;;;;6339333;22;45183;-71
2023/10/23 13:17:44;;;;;;;;;10.33;9.67;;;;;;;;6339146;22;45201;-70
2023/10/23 13:20:10;;;;;;;;;15.00;10.33;;;;;;;;6338174;22;45374;-70
2023/10/23 13:22:35;;;;;;;;;8.33;8.33;;;;;;;;6309853;22;45382;-70
2023/10/23 13:25:01;;;;;;;;;8.67;7.33;;;;;;;;6339503;22;45310;-70
2023/10/23 13:27:26;;;;;;;;;10.33;9.00;;;;;;;;6339376;22;45254;-70
2023/10/23 13:29:51;;;;;;;;;10.67;9.00;;;;;;;;6338901;22;45226;-71
2023/10/23 13:32:16;;;;;;;;;7.33;7.33;;;;;;;;6341050;22;45144;-71
2023/10/23 13:34:42;;;;;;;;;15.33;12.00;;;;;;;;6340379;22;45159;-72
2023/10/23 13:37:07;;;;;;;;;10.67;9.00;;;;;;;;6341271;22;46052;-70
2023/10/23 13:39:32;;;;;;;;;11.00;7.00;;;;;;;;6312358;22;45399;-70
2023/10/23 13:41:57;;;;;;;;;8.67;8.33;;;;;;;;6341027;22;45445;-70
2023/10/23 13:44:23;;;;;;;;;34.75;29.00;;;;;;;;6340041;22;45166;-70
2023/10/23 13:46:48;;;;;;;;;12.00;11.00;;;;;;;;6312692;22;48009;-70
2023/10/23 13:49:13;;;;;;;;;23.75;20.25;;;;;;;;6340119;22;45003;-70
2023/10/23 13:51:38;;;;;;;;;26.75;23.50;;;;;;;;6341167;22;45502;-70
2023/10/23 13:54:03;;;;;;;;;14.75;12.50;;;;;;;;6340419;22;45152;-70
2023/10/23 13:56:29;;;;;;;;;14.33;12.67;;;;;;;;6341365;22;45254;-70
2023/10/23 13:58:54;;;;;;;;;26.75;22.50;;;;;;;;6340942;22;45355;-70
2023/10/23 14:01:19;;;;;;;;;13.33;13.00;;;;;;;;6311996;22;45608;-71
2023/10/23 14:03:45;;;;;;;;;9.33;9.33;;;;;;;;6340441;22;45301;-71
2023/10/23 14:06:10;;;;;;;;;10.00;10.00;;;;;;;;6339109;22;45164;-70
2023/10/23 14:08:37;;;;;;;;;20.25;19.25;;;;;;;;6340485;22;45273;-70
2023/10/23 14:11:02;;;;;;;;;9.00;7.00;;;;;;;;6340696;22;45248;-70
2023/10/23 14:13:27;;;;;;;;;10.33;8.00;;;;;;;;6341267;22;45166;-70
2023/10/23 14:15:53;;;;;;;;;8.00;8.00;;;;;;;;6340841;22;45176;-71
2023/10/23 14:18:18;;;;;;;;;8.67;6.00;;;;;;;;6340847;22;45181;-70
2023/10/23 14:20:43;;;;;;;;;6.00;5.67;;;;;;;;6339539;22;45192;-71
2023/10/23 14:23:09;;;;;;;;;10.67;9.33;;;;;;;;6340727;22;45191;-72
2023/10/23 14:25:34;;;;;;;;;10.00;9.00;;;;;;;;6340392;22;46743;-71
2023/10/23 14:27:59;;;;;;;;;8.00;7.33;;;;;;;;6341189;22;45073;-70
2023/10/23 14:30:25;;;;;;;;;6.33;6.33;;;;;;;;6340422;22;45390;-71
2023/10/23 14:32:50;;;;;;;;;9.00;6.00;;;;;;;;6339529;22;45191;-70
2023/10/23 14:35:15;;;;;;;;;14.00;14.00;;;;;;;;6340515;22;45099;-70
2023/10/23 14:37:41;;;;;;;;;12.00;9.33;;;;;;;;6340835;22;45126;-70
2023/10/23 14:40:09;;;;;;;;;9.33;9.00;;;;;;;;6340632;22;45179;-71
2023/10/23 14:42:34;;;;;;;;;10.33;9.33;;;;;;;;6340560;22;45619;-70
2023/10/23 14:45:00;;;;;;;;;8.33;8.33;;;;;;;;6339977;22;45368;-70
2023/10/23 14:47:25;;;;;;;;;8.00;8.00;;;;;;;;6340835;22;45307;-70
2023/10/23 14:49:52;;;;;;;;;9.33;5.67;;;;;;;;6340538;22;45487;-70
2023/10/23 14:52:19;;;;;;;;;6.67;6.67;;;;;;;;6340193;22;45165;-72
2023/10/23 14:54:44;;;;;;;;;10.00;8.33;;;;;;;;6340057;22;45291;-70
2023/10/23 14:57:09;;;;;;;;;10.33;10.00;;;;;;;;6340508;22;45193;-70
2023/10/23 14:59:34;;;;;;;;;9.00;9.00;;;;;;;;6339743;22;45190;-70
2023/10/23 15:01:59;;;;;;;;;11.67;10.33;;;;;;;;6339839;22;45227;-70
2023/10/23 15:04:25;;;;;;;;;12.33;10.00;;;;;;;;6339418;22;45207;-71
2023/10/23 15:06:50;;;;;;;;;9.00;9.00;;;;;;;;6340878;22;45227;-70
2023/10/23 15:09:16;;;;;;;;;28.25;24.25;;;;;;;;6340559;22;45144;-70
2023/10/23 15:11:42;;;;;;;;;39.50;35.00;;;;;;;;6340568;22;45207;-70
2023/10/23 15:14:07;;;;;;;;;21.33;15.67;;;;;;;;6340056;22;46212;-69
2023/10/23 15:16:33;;;;;;;;;13.33;11.67;;;;;;;;6340778;22;45340;-69
2023/10/23 15:18:58;;;;;;;;;12.67;12.67;;;;;;;;6339854;22;45153;-69
2023/10/23 15:21:23;;;;;;;;;11.67;11.00;;;;;;;;6339857;22;45246;-69
2023/10/23 15:23:48;;;;;;;;;12.67;11.00;;;;;;;;6311495;22;47082;-70
2023/10/23 15:26:14;;;;;;;;;11.00;9.33;;;;;;;;6340259;22;45224;-69
2023/10/23 15:28:39;;;;;;;;;12.00;12.00;;;;;;;;6340522;22;45290;-70
2023/10/23 15:31:04;;;;;;;;;10.00;10.00;;;;;;;;6340512;22;45398;-70
2023/10/23 15:33:30;;;;;;;;;12.33;11.33;;;;;;;;6311157;22;47667;-69
2023/10/23 15:35:57;;;;;;;;;10.33;10.00;;;;;;;;6312070;22;45166;-70
2023/10/23 15:38:24;;;;;;;;;12.67;12.67;;;;;;;;6312418;22;45282;-69
2023/10/23 15:40:50;;;;;;;;;16.33;12.33;;;;;;;;6311878;22;45882;-69
2023/10/23 15:43:16;;;;;;;;;13.67;13.00;;;;;;;;6311468;22;47463;-69
2023/10/23 15:45:44;;;;;;;;;17.67;13.67;;;;;;;;6339422;22;45289;-69
2023/10/23 15:48:10;;;;;;;;;20.25;20.25;;;;;;;;6340145;22;45279;-69
2023/10/23 15:50:36;;;;;;;;;16.67;14.00;;;;;;;;6339651;22;45518;-70
2023/10/23 15:53:04;;;;;;;;;16.33;14.33;;;;;;;;6340488;22;45285;-70
2023/10/23 15:55:29;;;;;;;;;23.00;17.00;;;;;;;;6340101;22;45074;-70
2023/10/23 15:57:55;;;;;;;;;12.67;11.00;;;;;;;;6340891;22;45441;-70
2023/10/23 16:00:21;;;;;;;;;13.00;13.00;;;;;;;;6340089;22;45389;-70
2023/10/23 16:02:46;;;;;;;;;15.50;14.00;;;;;;;;6340067;22;45996;-70
2023/10/23 16:05:11;;;;;;;;;18.00;15.25;;;;;;;;6339467;22;45215;-70
2023/10/23 16:07:36;;;;;;;;;19.50;15.00;;;;;;;;6340891;22;45225;-69
2023/10/23 16:10:04;;;;;;;;;20.75;17.00;;;;;;;;6339610;22;45218;-70
2023/10/23 16:12:29;;;;;;;;;14.33;13.67;;;;;;;;6340394;22;45269;-70
2023/10/23 16:14:54;;;;;;;;;13.50;13.25;;;;;;;;6339931;22;45278;-69
2023/10/23 16:17:19;;;;;;;;;16.00;16.00;;;;;;;;6340614;22;45278;-71
2023/10/23 16:19:46;;;;;;;;;12.00;11.00;;;;;;;;6339893;22;45334;-71
2023/10/23 16:22:11;;;;;;;;;16.67;15.00;;;;;;;;6340151;22;45183;-72
2023/10/23 16:24:37;;;;;;;;;12.67;11.00;;;;;;;;6340022;22;45246;-71
2023/10/23 16:27:02;;;;;;;;;15.33;15.33;;;;;;;;6311585;22;45135;-71
2023/10/23 16:29:27;;;;;;;;;20.50;16.50;;;;;;;;6339813;22;45517;-72
2023/10/23 16:31:54;;;;;;;;;21.75;21.75;;;;;;;;6340098;22;46577;-71
2023/10/23 16:34:19;;;;;;;;;28.25;26.50;;;;;;;;6339479;22;45288;-72
2023/10/23 16:36:44;;;;;;;;;25.00;21.25;;;;;;;;6340413;22;45102;-72
2023/10/23 16:39:10;;;;;;;;;20.50;17.25;;;;;;;;6339938;22;45162;-71
2023/10/23 16:41:36;;;;;;;;;20.75;18.75;;;;;;;;6311823;22;46983;-71
2023/10/23 16:44:01;;;;;;;;;17.67;16.00;;;;;;;;6310984;22;45243;-72
2023/10/23 16:46:26;;;;;;;;;21.00;19.00;;;;;;;;6340488;22;45140;-72
2023/10/23 16:48:52;;;;;;;;;14.75;14.75;;;;;;;;6339843;22;45121;-72
2023/10/23 16:51:18;;;;;;;;;18.00;16.67;;;;;;;;6340004;22;45607;-72
2023/10/23 16:53:43;;;;;;;;;46.00;37.00;;;;;;;;6339800;22;45254;-72
2023/10/23 16:56:08;;;;;;;;;23.25;21.75;;;;;;;;6340359;22;45211;-72
2023/10/23 16:58:33;;;;;;;;;52.00;43.00;;;;;;;;6339760;22;45255;-72
2023/10/23 17:01:03;;;;;;;;;40.00;33.75;;;;;;;;6339837;22;46072;-73
2023/10/23 17:03:28;;;;;;;;;27.00;25.75;;;;;;;;6310724;22;45915;-72
2023/10/23 17:05:53;;;;;;;;;28.75;25.25;;;;;;;;6339306;22;45231;-72
2023/10/23 17:08:18;;;;;;;;;40.00;35.75;;;;;;;;6341152;22;45086;-72
2023/10/23 17:10:44;;;;;;;;;47.50;40.50;;;;;;;;6340467;22;45259;-72
2023/10/23 17:13:09;;;;;;;;;24.75;23.00;;;;;;;;6341469;22;45125;-72
2023/10/23 17:15:40;;;;;;;;;33.25;31.00;;;;;;;;6341208;22;45143;-72
2023/10/23 17:18:05;;;;;;;;;44.25;37.00;;;;;;;;6340981;22;45624;-72
2023/10/23 17:20:30;;;;;;;;;29.50;27.50;;;;;;;;6340416;22;45267;-72
2023/10/23 17:22:55;;;;;;;;;38.25;34.50;;;;;;;;6312698;22;45281;-73
2023/10/23 17:25:20;;;;;;;;;34.00;29.50;;;;;;;;6340668;22;45417;-72
2023/10/23 17:27:48;;;;;;;;;35.00;30.75;;;;;;;;6341034;22;45258;-73
2023/10/23 17:30:13;;;;;;;;;27.00;24.50;;;;;;;;6340733;22;45466;-73
2023/10/23 17:32:39;;;;;;;;;74.25;55.75;;;;;;;;6341022;22;45229;-72
2023/10/23 17:35:04;;;;;;;;;129.00;107.00;;;;;;;;6312060;22;45244;-73
2023/10/23 17:37:30;;;;;;;;;73.00;54.25;;;;;;;;6341066;22;45141;-72
2023/10/23 17:39:55;;;;;;;;;37.00;31.00;;;;;;;;6312208;22;46206;-73
2023/10/23 17:42:21;;;;;;;;;17.25;16.00;;;;;;;;6341222;22;45157;-73
2023/10/23 17:44:46;;;;;;;;;50.00;41.00;;;;;;;;6341390;22;45236;-70
2023/10/23 17:47:11;;;;;;;;;30.25;27.25;;;;;;;;6341465;22;45167;-73
2023/10/23 17:49:37;;;;;;;;;27.00;25.50;;;;;;;;6312045;22;46991;-70
2023/10/23 17:52:03;;;;;;;;;25.25;21.75;;;;;;;;6340621;22;45207;-72
2023/10/23 17:54:28;;;;;;;;;16.50;16.50;;;;;;;;6341098;22;45319;-71
2023/10/23 17:56:53;;;;;;;;;21.75;19.00;;;;;;;;6340898;22;44859;-71
2023/10/23 17:59:19;;;;;;;;;31.00;28.75;;;;;;;;6340790;22;45338;-72
2023/10/23 18:01:44;;;;;;;;;53.50;39.50;;;;;;;;6341257;22;45266;-72
2023/10/23 18:04:09;;;;;;;;;40.00;35.50;;;;;;;;6340267;22;45265;-72
2023/10/23 18:06:35;;;;;;;;;46.75;39.75;;;;;;;;6340340;22;45528;-72
2023/10/23 18:09:03;;;;;;;;;42.25;35.50;;;;;;;;6340743;22;45207;-72
2023/10/23 18:11:28;;;;;;;;;22.00;19.25;;;;;;;;6340591;22;45211;-74
2023/10/23 18:13:54;;;;;;;;;39.25;35.50;;;;;;;;6340047;22;45198;-74
2023/10/23 18:16:19;;;;;;;;;35.75;32.25;;;;;;;;6341137;22;45155;-73
2023/10/23 18:18:44;;;;;;;;;31.00;28.00;;;;;;;;6340332;22;45155;-72
2023/10/23 18:21:11;;;;;;;;;25.50;24.50;;;;;;;;6339681;22;45092;-71
2023/10/23 18:23:36;;;;;;;;;35.25;31.00;;;;;;;;6341223;22;45093;-72
2023/10/23 18:26:01;;;;;;;;;30.25;26.75;;;;;;;;6341021;22;45551;-72
2023/10/23 18:28:27;;;;;;;;;23.50;21.25;;;;;;;;6340744;22;45116;-72
2023/10/23 18:30:53;;;;;;;;;31.00;27.25;;;;;;;;6339630;22;45218;-72
2023/10/23 18:33:18;;;;;;;;;23.00;21.00;;;;;;;;6341022;22;45294;-72
2023/10/23 18:35:43;;;;;;;;;23.50;21.75;;;;;;;;6340900;22;45460;-72
2023/10/23 18:38:08;;;;;;;;;23.50;21.50;;;;;;;;6312666;22;46798;-72
2023/10/23 18:40:39;;;;;;;;;33.25;30.25;;;;;;;;6340876;22;45173;-73
2023/10/23 18:43:04;;;;;;;;;27.25;22.75;;;;;;;;6341144;22;45282;-72
2023/10/23 18:45:29;;;;;;;;;20.25;19.00;;;;;;;;6340865;22;45215;-72
2023/10/23 18:47:55;;;;;;;;;20.50;19.75;;;;;;;;6341060;22;45231;-72
2023/10/23 18:50:20;;;;;;;;;24.75;22.75;;;;;;;;6340085;22;45226;-72
2023/10/23 18:52:45;;;;;;;;;24.00;23.25;;;;;;;;6311947;22;45267;-73
2023/10/23 18:55:10;;;;;;;;;23.75;23.75;;;;;;;;6312405;22;46355;-73
2023/10/23 18:57:35;;;;;;;;;22.00;20.00;;;;;;;;6340887;22;45132;-73
2023/10/23 19:00:01;;;;;;;;;19.00;19.00;;;;;;;;6311592;22;45219;-73
2023/10/23 19:02:26;;;;;;;;;19.50;18.50;;;;;;;;6340949;22;45687;-72
2023/10/23 19:04:51;;;;;;;;;21.25;18.25;;;;;;;;6339884;22;45537;-73
2023/10/23 19:07:17;;;;;;;;;17.50;15.50;;;;;;;;6341055;22;45147;-73
2023/10/23 19:09:42;;;;;;;;;19.75;17.00;;;;;;;;6339587;22;45105;-73
2023/10/23 19:12:07;;;;;;;;;17.25;15.00;;;;;;;;6342433;22;45158;-72
2023/10/23 19:14:32;;;;;;;;;19.00;16.75;;;;;;;;6340385;22;45933;-73
2023/10/23 19:17:00;;;;;;;;;18.75;17.25;;;;;;;;6340606;22;46151;-73
2023/10/23 19:19:25;;;;;;;;;19.00;16.00;;;;;;;;6340211;22;45547;-72
2023/10/23 19:21:51;;;;;;;;;15.00;13.00;;;;;;;;6340995;22;45257;-73
2023/10/23 19:24:16;;;;;;;;;14.75;12.00;;;;;;;;6340530;22;45247;-73
2023/10/23 19:26:42;;;;;;;;;21.00;18.25;;;;;;;;6340471;22;45346;-73
2023/10/23 19:29:08;;;;;;;;;11.00;10.75;;;;;;;;6339941;22;45338;-72